createdAt,value
2023-08-14T00:01:48.078Z,66.08
2023-08-14T00:04:14.459Z,66.33
2023-08-14T00:06:40.908Z,65.59
2023-08-14T00:09:07.382Z,65.21
2023-08-14T00:11:33.973Z,65.69
2023-08-14T00:14:00.411Z,65.86
2023-08-14T00:16:27.423Z,66.56
2023-08-14T00:18:54.353Z,67.51
2023-08-14T00:21:21.115Z,67.51
2023-08-14T00:23:47.529Z,66.88
2023-08-14T00:26:14.079Z,66.43
2023-08-14T00:28:40.669Z,66.67
2023-08-14T00:31:07.138Z,66.69
2023-08-14T00:33:33.624Z,66.77
2023-08-14T00:36:00.520Z,66.51
2023-08-14T00:38:26.930Z,66.84
2023-08-14T00:40:54.098Z,66.55
2023-08-14T00:43:23.442Z,66.85
2023-08-14T00:45:53.889Z,66.72
2023-08-14T00:48:20.477Z,67.06
2023-08-14T00:50:47.872Z,66.41
2023-08-14T00:53:15.603Z,66.75
2023-08-14T00:55:42.188Z,66.34
2023-08-14T00:58:08.923Z,67.48
2023-08-14T01:00:36.493Z,65.85
2023-08-14T01:03:03.874Z,66.34
2023-08-14T01:05:31.928Z,66.52
2023-08-14T01:07:58.444Z,66.16
2023-08-14T01:10:40.492Z,66.30
2023-08-14T01:13:34.621Z,65.79
2023-08-14T01:16:07.604Z,66.08
2023-08-14T01:18:36.840Z,65.89
2023-08-14T01:21:22.519Z,66.41
2023-08-14T01:24:12.217Z,66.09
2023-08-14T01:26:39.452Z,66.26
2023-08-14T01:29:06.206Z,66.30
2023-08-14T01:31:32.676Z,66.38
2023-08-14T01:33:59.083Z,66.88
2023-08-14T01:36:40.048Z,66.67
2023-08-14T01:39:09.315Z,66.64
2023-08-14T01:41:39.356Z,66.37
2023-08-14T01:44:10.112Z,66.42
2023-08-14T01:46:37.613Z,67.22
2023-08-14T01:49:05.446Z,66.30
2023-08-14T01:51:32.575Z,66.07
2023-08-14T01:53:59.013Z,66.76
2023-08-14T01:56:25.451Z,66.00
2023-08-14T01:58:51.885Z,66.38
2023-08-14T02:01:18.371Z,66.42
2023-08-14T02:03:44.898Z,67.02
2023-08-14T02:06:11.374Z,66.92
2023-08-14T02:08:37.764Z,66.98
2023-08-14T02:11:08.446Z,66.98
2023-08-14T02:13:34.983Z,67.08
2023-08-14T02:16:04.245Z,67.32
2023-08-14T02:18:30.834Z,67.25
2023-08-14T02:21:00.364Z,67.23
2023-08-14T02:23:26.846Z,67.46
2023-08-14T02:25:56.602Z,66.69
2023-08-14T02:28:23.229Z,67.04
2023-08-14T02:30:49.714Z,67.48
2023-08-14T02:33:16.180Z,67.24
2023-08-14T02:35:42.620Z,67.56
2023-08-14T02:38:09.135Z,66.96
2023-08-14T02:40:35.597Z,66.96
2023-08-14T02:43:03.860Z,67.60
2023-08-14T02:45:30.525Z,68.21
2023-08-14T02:47:57.034Z,67.80
2023-08-14T02:50:23.546Z,68.04
2023-08-14T02:52:50.513Z,68.14
2023-08-14T02:55:16.945Z,67.30
2023-08-14T02:57:43.782Z,67.60
2023-08-14T03:00:10.845Z,67.99
2023-08-14T03:02:37.429Z,67.91
2023-08-14T03:05:03.974Z,68.03
2023-08-14T03:07:30.413Z,68.18
2023-08-14T03:09:57.510Z,68.33
2023-08-14T03:12:24.002Z,69.04
2023-08-14T03:14:50.432Z,69.46
2023-08-14T03:17:17.299Z,69.37
2023-08-14T03:19:43.766Z,69.79
2023-08-14T03:22:10.169Z,69.55
2023-08-14T03:24:36.575Z,69.88
2023-08-14T03:27:03.004Z,70.40
2023-08-14T03:29:29.466Z,70.60
2023-08-14T03:31:55.869Z,70.46
2023-08-14T03:34:22.305Z,70.13
2023-08-14T03:36:48.711Z,70.36
2023-08-14T03:39:15.110Z,70.38
2023-08-14T03:41:41.505Z,69.93
2023-08-14T03:44:07.921Z,70.31
2023-08-14T03:46:34.413Z,70.17
2023-08-14T03:49:00.959Z,69.85
2023-08-14T03:51:27.462Z,71.15
2023-08-14T03:53:53.868Z,70.90
2023-08-14T03:56:20.254Z,70.52
2023-08-14T03:58:46.674Z,70.85
2023-08-14T04:01:13.070Z,71.39
2023-08-14T04:03:39.894Z,70.95
2023-08-14T04:06:06.592Z,71.34
2023-08-14T04:08:33.074Z,71.55
2023-08-14T04:10:59.476Z,70.94
2023-08-14T04:13:26.791Z,71.54
2023-08-14T04:16:00.669Z,71.75
2023-08-14T04:18:28.750Z,71.94
2023-08-14T04:20:55.539Z,71.89
2023-08-14T04:23:24.076Z,71.86
2023-08-14T04:25:51.381Z,72.15
2023-08-14T04:28:17.803Z,72.67
2023-08-14T04:30:44.347Z,72.50
2023-08-14T04:33:10.853Z,72.08
2023-08-14T04:35:39.012Z,71.97
2023-08-14T04:38:05.823Z,72.44
2023-08-14T04:40:32.541Z,72.88
2023-08-14T04:42:58.979Z,73.26
2023-08-14T04:45:25.506Z,73.70
2023-08-14T04:47:53.737Z,72.45
2023-08-14T04:50:21.589Z,72.32
2023-08-14T04:52:47.980Z,72.21
2023-08-14T04:55:14.399Z,73.37
2023-08-14T04:57:40.792Z,72.72
2023-08-14T05:00:07.916Z,73.35
2023-08-14T05:02:34.393Z,73.63
2023-08-14T05:05:00.939Z,73.51
2023-08-14T05:07:28.006Z,73.21
2023-08-14T05:09:54.502Z,73.78
2023-08-14T05:12:21.005Z,73.73
2023-08-14T05:14:48.321Z,73.71
2023-08-14T05:17:14.781Z,73.19
2023-08-14T05:19:41.261Z,73.94
2023-08-14T05:22:07.693Z,74.40
2023-08-14T05:24:34.099Z,74.74
2023-08-14T05:27:00.496Z,74.27
2023-08-14T05:29:26.912Z,75.01
2023-08-14T05:31:53.360Z,74.50
2023-08-14T05:34:19.744Z,74.92
2023-08-14T05:36:46.137Z,75.12
2023-08-14T05:39:12.559Z,74.65
2023-08-14T05:41:38.962Z,73.97
2023-08-14T05:44:06.488Z,73.83
2023-08-14T05:46:33.003Z,73.17
2023-08-14T05:48:59.389Z,72.88
2023-08-14T05:51:25.848Z,73.60
2023-08-14T05:53:52.234Z,72.97
2023-08-14T05:56:18.630Z,72.51
2023-08-14T05:58:45.025Z,72.86
2023-08-14T06:01:11.435Z,72.74
2023-08-14T06:03:44.878Z,72.30
2023-08-14T06:06:12.115Z,71.75
2023-08-14T06:08:38.518Z,71.87
2023-08-14T06:11:04.970Z,71.98
2023-08-14T06:13:32.519Z,72.48
2023-08-14T06:15:58.946Z,71.81
2023-08-14T06:18:25.439Z,71.44
2023-08-14T06:20:52.574Z,70.83
2023-08-14T06:23:20.117Z,70.28
2023-08-14T06:25:46.888Z,70.22
2023-08-14T06:28:13.351Z,70.37
2023-08-14T06:30:39.852Z,70.39
2023-08-14T06:33:06.418Z,70.01
2023-08-14T06:35:32.866Z,69.22
2023-08-14T06:37:59.411Z,69.33
2023-08-14T06:40:25.833Z,69.77
2023-08-14T06:42:53.207Z,69.13
2023-08-14T06:45:20.206Z,69.30
2023-08-14T06:47:46.701Z,69.30
2023-08-14T06:50:14.230Z,69.05
2023-08-14T06:52:41.224Z,68.78
2023-08-14T06:55:08.129Z,68.97
2023-08-14T06:57:34.799Z,68.33
2023-08-14T07:00:06.620Z,68.90
2023-08-14T07:02:33.216Z,68.30
2023-08-14T07:04:59.671Z,68.16
2023-08-14T07:07:26.091Z,68.01
2023-08-14T07:09:52.485Z,67.45
2023-08-14T07:12:19.680Z,66.70
2023-08-14T07:14:46.369Z,67.31
2023-08-14T07:17:12.927Z,66.87
2023-08-14T07:19:39.403Z,66.65
2023-08-14T07:22:05.820Z,66.71
2023-08-14T07:24:32.394Z,67.28
2023-08-14T07:27:00.311Z,67.48
2023-08-14T07:29:26.866Z,67.67
2023-08-14T07:31:53.362Z,67.22
2023-08-14T07:34:19.831Z,67.25
2023-08-14T07:36:46.407Z,66.66
2023-08-14T07:39:12.880Z,67.22
2023-08-14T07:41:39.263Z,67.09
2023-08-14T07:44:05.894Z,67.17
2023-08-14T07:46:32.435Z,66.92
2023-08-14T07:48:59.002Z,67.34
2023-08-14T07:51:25.464Z,66.55
2023-08-14T07:53:53.213Z,66.83
2023-08-14T07:56:19.678Z,66.54
2023-08-14T07:58:46.116Z,65.84
2023-08-14T08:01:12.845Z,65.14
2023-08-14T08:03:39.332Z,64.74
2023-08-14T08:06:06.832Z,64.26
2023-08-14T08:08:33.429Z,64.45
2023-08-14T08:10:59.839Z,64.70
2023-08-14T08:13:26.262Z,64.29
2023-08-14T08:15:52.750Z,64.75
2023-08-14T08:18:19.458Z,64.00
2023-08-14T08:20:46.103Z,63.90
2023-08-14T08:23:12.550Z,63.95
2023-08-14T08:25:38.946Z,63.53
2023-08-14T08:28:05.692Z,63.12
2023-08-14T08:30:32.087Z,62.65
2023-08-14T08:35:28.845Z,62.04
2023-08-14T08:37:55.251Z,62.67
2023-08-14T08:40:23.021Z,62.98
2023-08-14T08:42:49.927Z,62.91
2023-08-14T08:45:19.271Z,62.91
2023-08-14T08:47:49.325Z,63.12
2023-08-14T08:50:15.994Z,63.79
2023-08-14T08:52:43.635Z,63.91
2023-08-14T08:55:10.335Z,61.93
2023-08-14T08:57:39.259Z,62.24
2023-08-14T09:00:06.476Z,61.95
2023-08-14T09:02:32.889Z,62.20
2023-08-14T09:04:59.386Z,61.40
2023-08-14T09:07:25.930Z,61.54
2023-08-14T09:09:52.410Z,61.08
2023-08-14T09:12:19.157Z,60.96
2023-08-14T09:14:59.972Z,59.61
2023-08-14T09:17:26.690Z,59.98
2023-08-14T09:19:53.139Z,59.63
2023-08-14T09:22:19.713Z,58.95
2023-08-14T09:24:49.377Z,58.84
2023-08-14T09:27:17.160Z,58.82
2023-08-14T09:29:43.902Z,58.84
2023-08-14T09:32:11.670Z,58.56
2023-08-14T09:34:38.888Z,58.54
2023-08-14T09:37:05.849Z,58.49
2023-08-14T09:39:32.318Z,58.09
2023-08-14T09:41:58.873Z,57.60
2023-08-14T09:44:25.534Z,56.77
2023-08-14T09:46:55.459Z,56.52
2023-08-14T09:49:22.474Z,56.24
2023-08-14T09:51:56.869Z,57.02
2023-08-14T09:54:34.660Z,56.44
2023-08-14T09:57:08.549Z,55.43
2023-08-14T09:59:36.755Z,54.10
2023-08-14T10:02:04.660Z,54.43
2023-08-14T10:04:32.188Z,55.18
2023-08-14T10:06:59.315Z,55.63
2023-08-14T10:09:30.186Z,55.66
2023-08-14T10:12:01.733Z,55.72
2023-08-14T10:14:30.243Z,55.36
2023-08-14T10:17:01.917Z,55.54
2023-08-14T10:19:30.603Z,55.79
2023-08-14T10:21:58.329Z,56.22
2023-08-14T10:24:28.752Z,56.08
2023-08-14T10:26:57.935Z,56.21
2023-08-14T10:29:25.246Z,55.29
2023-08-14T10:31:52.133Z,55.44
2023-08-14T10:34:19.464Z,55.62
2023-08-14T10:36:50.296Z,55.40
2023-08-14T10:39:19.473Z,54.49
2023-08-14T10:41:46.718Z,54.48
2023-08-14T10:44:13.325Z,53.83
2023-08-14T10:46:43.556Z,51.46
2023-08-14T10:49:14.391Z,49.09
2023-08-14T10:51:44.663Z,51.89
2023-08-14T10:54:13.970Z,52.23
2023-08-14T10:56:46.759Z,52.65
2023-08-14T10:59:29.750Z,52.87
2023-08-14T11:02:15.659Z,53.32
2023-08-14T11:05:23.281Z,53.13
2023-08-14T11:07:59.016Z,52.84
2023-08-14T11:10:26.799Z,52.30
2023-08-14T11:12:54.466Z,53.34
2023-08-14T11:15:24.347Z,53.15
2023-08-14T11:17:51.146Z,52.85
2023-08-14T11:20:17.824Z,52.84
2023-08-14T11:22:45.757Z,52.53
2023-08-14T11:25:18.785Z,51.63
2023-08-14T11:27:50.620Z,50.55
2023-08-14T11:30:26.223Z,50.86
2023-08-14T11:32:54.847Z,50.58
2023-08-14T11:37:52.778Z,50.07
2023-08-14T11:40:19.254Z,50.20
2023-08-14T11:42:45.738Z,50.65
2023-08-14T11:45:12.553Z,49.57
2023-08-14T11:47:41.347Z,49.37
2023-08-14T11:50:08.949Z,49.76
2023-08-14T11:52:37.038Z,50.62
2023-08-14T11:55:04.143Z,50.12
2023-08-14T11:57:32.791Z,49.71
2023-08-14T12:00:03.940Z,50.75
2023-08-14T12:02:31.528Z,51.07
2023-08-14T12:05:01.518Z,50.91
2023-08-14T12:07:28.367Z,50.08
2023-08-14T12:09:56.013Z,47.92
2023-08-14T12:12:23.623Z,45.30
2023-08-14T12:14:51.522Z,44.05
2023-08-14T12:17:21.055Z,45.57
2023-08-14T12:19:52.459Z,45.49
2023-08-14T12:22:23.447Z,45.84
2023-08-14T12:24:50.712Z,43.75
2023-08-14T12:27:24.653Z,43.26
2023-08-14T12:29:52.968Z,43.36
2023-08-14T12:32:20.219Z,43.66
2023-08-14T12:34:47.527Z,43.99
2023-08-14T12:37:17.823Z,42.32
2023-08-14T12:39:51.938Z,41.85
2023-08-14T12:42:18.661Z,41.80
2023-08-14T12:44:45.192Z,42.11
2023-08-14T12:47:11.823Z,41.89
2023-08-14T12:49:38.365Z,41.13
2023-08-14T12:52:09.828Z,41.44
2023-08-14T12:54:39.487Z,40.24
2023-08-14T12:57:07.173Z,40.23
2023-08-14T12:59:33.964Z,40.18
2023-08-14T13:02:00.508Z,40.05
2023-08-14T13:04:28.336Z,39.71
2023-08-14T13:06:56.301Z,37.98
2023-08-14T13:09:22.713Z,38.48
2023-08-14T13:11:49.124Z,39.50
2023-08-14T13:14:15.795Z,39.26
2023-08-14T13:16:42.254Z,39.34
2023-08-14T13:19:08.760Z,37.72
2023-08-14T13:21:35.226Z,38.51
2023-08-14T13:24:01.711Z,38.39
2023-08-14T13:26:29.559Z,38.23
2023-08-14T13:28:57.403Z,38.55
2023-08-14T13:31:24.032Z,37.76
2023-08-14T13:33:50.893Z,38.93
2023-08-14T13:36:17.429Z,38.77
2023-08-14T13:38:43.862Z,38.01
2023-08-14T13:41:11.478Z,39.04
2023-08-14T13:43:38.279Z,38.77
2023-08-14T13:46:04.713Z,37.42
2023-08-14T13:48:31.206Z,35.43
2023-08-14T13:50:57.899Z,36.61
2023-08-14T13:53:24.319Z,36.07
2023-08-14T13:55:52.710Z,35.93
2023-08-14T13:58:19.426Z,35.95
2023-08-14T14:00:46.064Z,35.41
2023-08-14T14:03:12.575Z,34.62
2023-08-14T14:05:39.869Z,35.62
2023-08-14T14:08:06.689Z,35.71
2023-08-14T14:10:33.211Z,36.05
2023-08-14T14:13:02.645Z,36.00
2023-08-14T14:15:30.440Z,35.66
2023-08-14T14:17:57.304Z,36.21
2023-08-14T14:20:23.856Z,36.82
2023-08-14T14:22:50.273Z,36.75
2023-08-14T14:25:16.742Z,36.48
2023-08-14T14:27:43.177Z,36.61
2023-08-14T14:30:10.029Z,36.97
2023-08-14T14:32:39.784Z,36.52
2023-08-14T14:35:06.605Z,37.32
2023-08-14T14:37:33.172Z,38.50
2023-08-14T14:39:59.812Z,38.61
2023-08-14T14:42:26.539Z,38.51
2023-08-14T14:44:54.313Z,37.20
2023-08-14T14:47:22.512Z,37.35
2023-08-14T14:49:49.463Z,36.65
2023-08-14T14:52:15.856Z,36.03
2023-08-14T14:54:42.258Z,35.92
2023-08-14T14:57:08.659Z,36.37
2023-08-14T14:59:35.418Z,36.13
2023-08-14T15:02:06.722Z,35.13
2023-08-14T15:04:38.951Z,35.98
2023-08-14T15:07:06.196Z,35.61
2023-08-14T15:09:32.611Z,34.45
2023-08-14T15:11:59.059Z,33.79
2023-08-14T15:14:25.486Z,33.53
2023-08-14T15:16:54.067Z,33.87
2023-08-14T15:19:20.728Z,34.11
2023-08-14T15:21:47.138Z,34.19
2023-08-14T15:24:13.564Z,35.15
2023-08-14T15:26:40.710Z,34.80
2023-08-14T15:29:07.314Z,35.34
2023-08-14T15:31:33.750Z,35.36
2023-08-14T15:34:00.176Z,35.20
2023-08-14T15:36:26.574Z,35.22
2023-08-14T15:38:53.167Z,35.34
2023-08-14T15:41:19.758Z,36.13
2023-08-14T15:43:46.179Z,36.80
2023-08-14T15:46:12.684Z,36.49
2023-08-14T15:48:41.052Z,38.81
2023-08-14T15:51:07.473Z,40.21
2023-08-14T15:53:33.854Z,39.21
2023-08-14T15:56:00.305Z,39.33
2023-08-14T15:58:26.686Z,39.40
2023-08-14T16:00:53.362Z,40.43
2023-08-14T16:03:19.823Z,39.58
2023-08-14T16:05:46.197Z,40.59
2023-08-14T16:08:12.877Z,39.03
2023-08-14T16:10:39.264Z,38.71
2023-08-14T16:13:05.652Z,38.98
2023-08-14T16:15:32.074Z,39.11
2023-08-14T16:17:58.504Z,38.64
2023-08-14T16:20:24.899Z,36.76
2023-08-14T16:22:51.405Z,37.68
2023-08-14T16:25:17.999Z,36.49
2023-08-14T16:27:44.378Z,35.45
2023-08-14T16:30:11.235Z,35.38
2023-08-14T16:32:37.741Z,37.33
2023-08-14T16:35:04.915Z,36.79
2023-08-14T16:37:31.405Z,35.70
2023-08-14T16:39:57.957Z,34.85
2023-08-14T16:42:24.487Z,33.49
2023-08-14T16:44:51.180Z,32.23
2023-08-14T16:47:17.886Z,31.92
2023-08-14T16:49:44.769Z,32.09
2023-08-14T16:52:11.236Z,31.53
2023-08-14T16:54:37.681Z,31.87
2023-08-14T16:57:05.893Z,31.30
2023-08-14T16:59:32.320Z,31.92
2023-08-14T17:01:58.919Z,32.52
2023-08-14T17:04:25.520Z,32.60
2023-08-14T17:06:52.030Z,32.37
2023-08-14T17:09:19.004Z,33.10
2023-08-14T17:11:45.471Z,33.37
2023-08-14T17:14:12.068Z,33.46
2023-08-14T17:16:38.669Z,34.08
2023-08-14T17:19:05.646Z,35.15
2023-08-14T17:21:32.058Z,35.37
2023-08-14T17:23:58.528Z,36.25
2023-08-14T17:26:25.227Z,36.68
2023-08-14T17:28:51.655Z,36.19
2023-08-14T17:31:18.170Z,36.86
2023-08-14T17:33:44.869Z,36.98
2023-08-14T17:36:11.256Z,37.34
2023-08-14T17:38:37.686Z,37.34
2023-08-14T17:41:04.366Z,38.01
2023-08-14T17:43:31.025Z,37.91
2023-08-14T17:45:58.509Z,38.70
2023-08-14T17:48:25.300Z,40.11
2023-08-14T17:50:52.699Z,42.22
2023-08-14T17:53:20.129Z,42.71
2023-08-14T17:55:46.737Z,43.40
2023-08-14T17:58:13.174Z,43.60
2023-08-14T18:00:45.761Z,43.27
2023-08-14T18:03:12.353Z,43.88
2023-08-14T18:05:39.072Z,43.78
2023-08-14T18:08:05.617Z,43.34
2023-08-14T18:10:32.322Z,44.21
2023-08-14T18:12:58.744Z,45.50
2023-08-14T18:15:25.185Z,45.88
2023-08-14T18:17:51.604Z,45.93
2023-08-14T18:20:18.071Z,47.32
2023-08-14T18:22:44.570Z,47.13
2023-08-14T18:25:11.009Z,47.53
2023-08-14T18:27:37.492Z,47.56
2023-08-14T18:30:04.388Z,48.09
2023-08-14T18:32:30.844Z,48.37
2023-08-14T18:34:57.384Z,47.90
2023-08-14T18:37:24.225Z,48.63
2023-08-14T18:39:50.671Z,49.02
2023-08-14T18:42:17.168Z,49.28
2023-08-14T18:44:43.606Z,50.00
2023-08-14T18:47:10.056Z,49.72
2023-08-14T18:49:36.482Z,50.04
2023-08-14T18:52:02.971Z,51.72
2023-08-14T18:54:29.462Z,50.90
2023-08-14T18:56:55.866Z,51.48
2023-08-14T18:59:24.075Z,51.66
2023-08-14T19:01:51.910Z,51.64
2023-08-14T19:04:25.700Z,51.54
2023-08-14T19:06:55.875Z,51.60
2023-08-14T19:09:22.339Z,50.87
2023-08-14T19:11:48.817Z,50.58
2023-08-14T19:14:15.344Z,50.43
2023-08-14T19:16:41.743Z,50.20
2023-08-14T19:19:08.160Z,50.99
2023-08-14T19:21:34.989Z,50.94
2023-08-14T19:24:01.432Z,51.50
2023-08-14T19:26:28.773Z,51.98
2023-08-14T19:28:55.367Z,51.96
2023-08-14T19:31:23.559Z,52.83
2023-08-14T19:33:50.802Z,52.92
2023-08-14T19:36:17.233Z,52.48
2023-08-14T19:38:43.958Z,52.38
2023-08-14T19:41:10.431Z,51.84
2023-08-14T19:43:36.834Z,51.95
2023-08-14T19:46:03.291Z,52.69
2023-08-14T19:48:29.715Z,53.40
2023-08-14T19:50:57.049Z,53.00
2023-08-14T19:53:23.480Z,53.07
2023-08-14T19:55:49.912Z,52.56
2023-08-14T19:58:16.369Z,51.98
2023-08-14T20:00:43.037Z,52.46
2023-08-14T20:03:09.987Z,53.43
2023-08-14T20:05:36.597Z,54.17
2023-08-14T20:08:03.238Z,53.45
2023-08-14T20:10:29.693Z,53.59
2023-08-14T20:12:56.131Z,54.12
2023-08-14T20:15:22.545Z,54.70
2023-08-14T20:17:49.056Z,56.27
2023-08-14T20:20:18.403Z,57.23
2023-08-14T20:22:45.060Z,56.91
2023-08-14T20:25:12.060Z,56.74
2023-08-14T20:27:38.465Z,56.89
2023-08-14T20:30:05.182Z,56.14
2023-08-14T20:32:31.620Z,55.97
2023-08-14T20:34:58.023Z,56.02
2023-08-14T20:37:24.710Z,56.66
2023-08-14T20:39:51.767Z,56.51
2023-08-14T20:42:18.267Z,56.89
2023-08-14T20:44:45.431Z,57.47
2023-08-14T20:47:11.871Z,57.60
2023-08-14T20:49:38.405Z,57.87
2023-08-14T20:52:05.149Z,58.73
2023-08-14T20:54:31.827Z,59.23
2023-08-14T20:57:01.285Z,58.95
2023-08-14T20:59:27.803Z,58.70
2023-08-14T21:01:55.381Z,59.39
2023-08-14T21:04:22.712Z,59.04
2023-08-14T21:06:49.218Z,59.36
2023-08-14T21:09:15.677Z,58.84
2023-08-14T21:11:42.339Z,59.21
2023-08-14T21:14:08.750Z,58.58
2023-08-14T21:16:35.436Z,58.38
2023-08-14T21:19:01.889Z,59.21
2023-08-14T21:21:28.364Z,59.15
2023-08-14T21:23:54.911Z,58.95
2023-08-14T21:26:21.304Z,58.96
2023-08-14T21:28:47.670Z,58.82
2023-08-14T21:31:14.121Z,58.67
2023-08-14T21:33:40.823Z,59.52
2023-08-14T21:36:07.582Z,59.04
2023-08-14T21:38:34.130Z,59.50
2023-08-14T21:41:04.644Z,59.84
2023-08-14T21:43:31.365Z,59.99
2023-08-14T21:45:57.812Z,59.71
2023-08-14T21:48:24.360Z,59.45
2023-08-14T21:50:50.761Z,59.54
2023-08-14T21:53:17.292Z,60.32
2023-08-14T21:55:43.676Z,60.94
2023-08-14T21:58:10.065Z,61.00
2023-08-14T22:00:36.650Z,60.45
2023-08-14T22:03:03.416Z,60.47
2023-08-14T22:05:29.813Z,60.70
2023-08-14T22:07:56.316Z,60.88
2023-08-14T22:10:22.909Z,61.63
2023-08-14T22:12:49.508Z,62.17
2023-08-14T22:15:16.079Z,62.65
2023-08-14T22:17:42.531Z,62.40
2023-08-14T22:20:11.080Z,62.22
2023-08-14T22:22:38.005Z,62.31
2023-08-14T22:25:07.467Z,62.21
2023-08-14T22:27:35.615Z,61.96
2023-08-14T22:30:02.661Z,62.40
2023-08-14T22:32:29.050Z,62.49
2023-08-14T22:34:55.424Z,62.95
2023-08-14T22:37:22.040Z,62.89
2023-08-14T22:39:48.682Z,62.83
2023-08-14T22:42:15.078Z,62.59
2023-08-14T22:44:41.446Z,62.73
2023-08-14T22:47:07.828Z,63.06
2023-08-14T22:49:34.392Z,63.24
2023-08-14T22:52:00.776Z,63.35
2023-08-14T22:54:27.274Z,63.96
2023-08-14T22:56:53.725Z,63.69
2023-08-14T22:59:20.091Z,63.48
2023-08-14T23:01:46.480Z,63.58
2023-08-14T23:04:13.053Z,63.39
2023-08-14T23:06:39.448Z,63.61
2023-08-14T23:09:05.809Z,63.54
2023-08-14T23:11:34.764Z,63.44
2023-08-14T23:14:01.422Z,63.97
2023-08-14T23:16:27.863Z,64.08
2023-08-14T23:18:54.221Z,64.81
2023-08-14T23:21:20.610Z,64.65
2023-08-14T23:23:47.006Z,65.07
2023-08-14T23:26:14.313Z,64.95
2023-08-14T23:28:40.780Z,65.16
2023-08-14T23:31:07.248Z,65.25
2023-08-14T23:33:33.628Z,65.16
2023-08-14T23:36:00.038Z,65.16
2023-08-14T23:38:26.427Z,65.11
2023-08-14T23:40:52.829Z,64.95
2023-08-14T23:43:19.207Z,65.14
2023-08-14T23:45:46.097Z,64.87
2023-08-14T23:48:12.551Z,65.34
2023-08-14T23:50:39.061Z,66.15
2023-08-14T23:53:05.537Z,65.73
2023-08-14T23:55:31.971Z,65.96
2023-08-14T23:57:58.362Z,65.89
